Aviation Digital Data Service (ADDS)

Output produced by METARs form (0651 UTC 18 September 2021)
found at http://www.aviationweather.gov/metar/data/
 
Forecast for: LCLK (LARNACA/LARNAX A, CY)
Text: TAF LCLK 180530Z 1806/1906 14008KT 9999 FEW040
Forecast period: 0600 to 0900 UTC 18 September 2021
Forecast type: FROM: standard forecast or significant change
Winds: from the SE (140 degrees) at 9 MPH (8 knots; 4.1 m/s)
Visibility: 6 or more miles (10+ km)
Ceiling: at least 12,000 feet AGL
Clouds: few clouds at 4000 feet AGL
Weather: no significant weather forecast for this period
Text: BECMG 1809/1812 21016KT
Forecast period: 0900 to 1600 UTC 18 September 2021
Forecast type: BECOMING: Conditions expected to become as follows by 1200 UTC 18 September 2021
Winds: from the SSW (210 degrees) at 18 MPH (16 knots; 8.2 m/s)
Visibility: 6 or more miles (10+ km)
Ceiling: at least 12,000 feet AGL
Clouds: few clouds at 4000 feet AGL
Weather: no significant weather forecast for this period
Text: BECMG 1816/1819 32008KT
Forecast period: 1600 UTC 18 September 2021 to 0600 UTC 19 September 2021
Forecast type: BECOMING: Conditions expected to become as follows by 1900 UTC 18 September 2021
Winds: from the NW (320 degrees) at 9 MPH (8 knots; 4.1 m/s)
Visibility: 6 or more miles (10+ km)
Ceiling: at least 12,000 feet AGL
Clouds: few clouds at 4000 feet AGL
Weather: no significant weather forecast for this period